createdAt,value
2023-02-19T00:01:26.777Z,64.83
2023-02-19T00:04:00.227Z,64.47
2023-02-19T00:06:28.976Z,64.24
2023-02-19T00:08:56.511Z,64.48
2023-02-19T00:11:27.243Z,63.51
2023-02-19T00:13:55.743Z,63.22
2023-02-19T00:16:28.202Z,63.00
2023-02-19T00:18:56.284Z,61.63
2023-02-19T00:21:23.992Z,62.42
2023-02-19T00:23:51.997Z,61.43
2023-02-19T00:26:19.098Z,61.07
2023-02-19T00:28:47.071Z,60.82
2023-02-19T00:31:17.168Z,61.11
2023-02-19T00:33:44.333Z,60.71
2023-02-19T00:36:11.042Z,59.68
2023-02-19T00:38:38.773Z,59.64
2023-02-19T00:41:19.084Z,59.70
2023-02-19T00:43:48.381Z,59.52
2023-02-19T00:46:20.664Z,59.44
2023-02-19T00:48:47.839Z,59.61
2023-02-19T00:51:14.840Z,58.75
2023-02-19T00:53:41.951Z,59.07
2023-02-19T00:56:09.142Z,59.00
2023-02-19T00:58:35.921Z,58.75
2023-02-19T01:01:02.731Z,59.22
2023-02-19T01:03:29.452Z,59.26
2023-02-19T01:05:56.143Z,58.81
2023-02-19T01:08:23.063Z,58.35
2023-02-19T01:10:49.739Z,57.99
2023-02-19T01:13:17.257Z,57.87
2023-02-19T01:15:44.012Z,58.02
2023-02-19T01:18:11.858Z,59.32
2023-02-19T01:20:40.830Z,58.56
2023-02-19T01:23:07.768Z,58.45
2023-02-19T01:25:34.762Z,58.29
2023-02-19T01:28:01.405Z,58.14
2023-02-19T01:30:28.104Z,58.91
2023-02-19T01:32:54.712Z,58.99
2023-02-19T01:35:21.363Z,60.11
2023-02-19T01:37:47.981Z,61.30
2023-02-19T01:40:14.606Z,60.46
2023-02-19T01:42:44.341Z,59.60
2023-02-19T01:45:25.259Z,61.34
2023-02-19T01:48:04.227Z,60.85
2023-02-19T01:50:37.152Z,60.06
2023-02-19T01:53:07.250Z,59.87
2023-02-19T01:55:35.271Z,60.05
2023-02-19T01:58:03.210Z,59.29
2023-02-19T02:00:30.804Z,59.82
2023-02-19T02:02:58.820Z,60.00
2023-02-19T02:05:38.707Z,59.51
2023-02-19T02:08:24.072Z,60.56
2023-02-19T02:10:52.499Z,61.56
2023-02-19T02:13:19.423Z,61.68
2023-02-19T02:15:58.541Z,61.55
2023-02-19T02:18:49.574Z,61.03
2023-02-19T02:21:30.239Z,60.95
2023-02-19T02:24:05.775Z,60.88
2023-02-19T02:26:40.985Z,61.71
2023-02-19T02:29:27.853Z,61.66
2023-02-19T02:32:01.340Z,60.91
2023-02-19T02:34:35.356Z,61.01
2023-02-19T02:37:03.598Z,60.69
2023-02-19T02:39:32.525Z,62.96
2023-02-19T02:42:18.648Z,63.70
2023-02-19T02:45:04.074Z,62.41
2023-02-19T02:47:44.707Z,63.15
2023-02-19T02:50:40.996Z,62.78
2023-02-19T02:53:41.946Z,62.55
2023-02-19T02:56:11.119Z,63.47
2023-02-19T02:58:38.570Z,62.44
2023-02-19T03:01:42.153Z,63.94
2023-02-19T03:04:32.535Z,62.87
2023-02-19T03:07:03.725Z,63.09
2023-02-19T03:09:40.640Z,62.44
2023-02-19T03:12:33.064Z,61.84
2023-02-19T03:15:24.171Z,62.55
2023-02-19T03:18:18.883Z,62.61
2023-02-19T03:20:51.791Z,62.66
2023-02-19T03:23:20.715Z,62.06
2023-02-19T03:26:06.274Z,61.88
2023-02-19T03:28:54.791Z,61.84
2023-02-19T03:31:25.185Z,62.15
2023-02-19T03:33:56.604Z,61.80
2023-02-19T03:36:27.315Z,61.96
2023-02-19T03:39:07.274Z,61.62
2023-02-19T03:41:39.782Z,61.42
2023-02-19T03:44:37.444Z,61.93
2023-02-19T03:47:22.151Z,62.62
2023-02-19T03:50:08.307Z,62.09
2023-02-19T03:52:40.957Z,61.81
2023-02-19T03:55:13.013Z,62.34
2023-02-19T03:57:50.063Z,61.72
2023-02-19T04:00:20.832Z,62.03
2023-02-19T04:02:57.540Z,61.33
2023-02-19T04:05:30.581Z,61.41
2023-02-19T04:08:08.943Z,61.41
2023-02-19T04:10:37.133Z,60.52
2023-02-19T04:13:11.995Z,60.73
2023-02-19T04:15:41.834Z,60.71
2023-02-19T04:18:16.061Z,61.55
2023-02-19T04:20:45.382Z,61.18
2023-02-19T04:23:14.724Z,61.11
2023-02-19T04:25:45.574Z,61.02
2023-02-19T04:28:14.992Z,61.45
2023-02-19T04:30:41.906Z,61.86
2023-02-19T04:33:08.567Z,62.41
2023-02-19T04:35:35.244Z,63.00
2023-02-19T04:38:01.886Z,63.50
2023-02-19T04:40:28.502Z,64.01
2023-02-19T04:42:55.614Z,63.62
2023-02-19T04:45:22.242Z,63.76
2023-02-19T04:47:48.855Z,64.80
2023-02-19T04:50:15.574Z,67.33
2023-02-19T04:52:42.192Z,67.74
2023-02-19T04:55:09.097Z,66.79
2023-02-19T04:57:35.991Z,68.22
2023-02-19T05:00:03.071Z,69.66
2023-02-19T05:02:29.698Z,69.98
2023-02-19T05:04:56.329Z,70.33
2023-02-19T05:07:22.923Z,70.89
2023-02-19T05:09:49.550Z,71.18
2023-02-19T05:12:16.139Z,71.06
2023-02-19T05:14:42.765Z,71.80
2023-02-19T05:17:09.364Z,72.11
2023-02-19T05:19:35.969Z,71.75
2023-02-19T05:22:02.603Z,72.27
2023-02-19T05:24:30.023Z,72.20
2023-02-19T05:26:56.650Z,71.85
2023-02-19T05:29:23.559Z,72.03
2023-02-19T05:31:50.220Z,71.60
2023-02-19T05:34:16.887Z,72.32
2023-02-19T05:36:43.754Z,73.22
2023-02-19T05:39:12.399Z,74.35
2023-02-19T05:41:39.457Z,74.70
2023-02-19T05:44:06.077Z,74.90
2023-02-19T05:46:32.888Z,74.90
2023-02-19T05:48:59.773Z,75.25
2023-02-19T05:51:27.481Z,75.11
2023-02-19T05:53:54.166Z,75.05
2023-02-19T05:56:23.514Z,75.31
2023-02-19T05:58:50.142Z,75.52
2023-02-19T06:01:17.821Z,75.15
2023-02-19T06:03:44.459Z,75.64
2023-02-19T06:06:15.754Z,76.08
2023-02-19T06:08:42.507Z,76.53
2023-02-19T06:11:09.705Z,76.46
2023-02-19T06:13:36.510Z,76.85
2023-02-19T06:16:07.744Z,77.10
2023-02-19T06:18:35.090Z,77.76
2023-02-19T06:21:06.928Z,77.98
2023-02-19T06:23:34.130Z,78.43
2023-02-19T06:26:22.200Z,79.27
2023-02-19T06:28:51.218Z,80.05
2023-02-19T06:31:19.668Z,80.53
2023-02-19T06:33:46.864Z,80.93
2023-02-19T06:36:16.121Z,80.83
2023-02-19T06:38:43.331Z,80.90
2023-02-19T06:41:11.449Z,81.21
2023-02-19T06:43:38.636Z,81.50
2023-02-19T06:46:07.156Z,81.89
2023-02-19T06:48:34.439Z,82.42
2023-02-19T06:51:01.318Z,82.57
2023-02-19T06:53:27.968Z,82.90
2023-02-19T06:56:07.661Z,82.08
2023-02-19T06:58:34.662Z,82.78
2023-02-19T07:01:01.662Z,82.26
2023-02-19T07:03:28.564Z,82.83
2023-02-19T07:05:55.305Z,84.29
2023-02-19T07:08:21.975Z,83.55
2023-02-19T07:10:56.510Z,83.58
2023-02-19T07:13:24.504Z,84.16
2023-02-19T07:15:52.192Z,84.58
2023-02-19T07:18:19.553Z,83.94
2023-02-19T07:20:46.265Z,84.22
2023-02-19T07:23:12.884Z,84.21
2023-02-19T07:25:39.854Z,84.73
2023-02-19T07:28:07.324Z,85.30
2023-02-19T07:30:34.170Z,85.84
2023-02-19T07:33:01.382Z,85.67
2023-02-19T07:35:28.045Z,85.50
2023-02-19T07:37:54.927Z,85.09
2023-02-19T07:40:21.591Z,84.61
2023-02-19T07:42:48.207Z,84.37
2023-02-19T07:45:14.992Z,84.25
2023-02-19T07:47:41.599Z,84.59
2023-02-19T07:50:08.382Z,84.48
2023-02-19T07:52:35.057Z,84.72
2023-02-19T07:55:01.751Z,84.69
2023-02-19T07:57:29.654Z,84.41
2023-02-19T07:59:56.350Z,85.07
2023-02-19T08:02:41.708Z,84.01
2023-02-19T08:05:08.469Z,83.83
2023-02-19T08:07:36.463Z,83.86
2023-02-19T08:10:43.114Z,84.20
2023-02-19T08:13:22.665Z,84.36
2023-02-19T08:15:49.365Z,83.50
2023-02-19T08:18:17.264Z,84.04
2023-02-19T08:20:44.614Z,83.14
2023-02-19T08:23:11.979Z,83.02
2023-02-19T08:25:40.089Z,82.81
2023-02-19T08:28:08.427Z,82.25
2023-02-19T08:30:38.319Z,81.96
2023-02-19T08:33:07.000Z,81.27
2023-02-19T08:35:36.543Z,80.46
2023-02-19T08:38:04.580Z,80.40
2023-02-19T08:40:31.597Z,80.11
2023-02-19T08:43:09.999Z,79.54
2023-02-19T08:45:44.995Z,79.70
2023-02-19T08:48:12.349Z,80.48
2023-02-19T08:50:39.169Z,79.81
2023-02-19T08:53:07.028Z,79.21
2023-02-19T08:55:33.828Z,78.52
2023-02-19T08:58:00.708Z,79.08
2023-02-19T09:00:27.541Z,79.80
2023-02-19T09:02:54.126Z,79.08
2023-02-19T09:05:20.808Z,79.01
2023-02-19T09:07:47.407Z,78.39
2023-02-19T09:10:14.610Z,77.82
2023-02-19T09:12:41.561Z,77.74
2023-02-19T09:15:08.740Z,76.77
2023-02-19T09:17:35.497Z,76.91
2023-02-19T09:20:02.268Z,79.02
2023-02-19T09:22:28.880Z,79.23
2023-02-19T09:24:55.597Z,79.47
2023-02-19T09:27:22.221Z,79.41
2023-02-19T09:29:48.818Z,79.70
2023-02-19T09:32:17.106Z,79.74
2023-02-19T09:34:44.657Z,79.96
2023-02-19T09:37:11.263Z,79.87
2023-02-19T09:39:38.211Z,79.98
2023-02-19T09:42:15.363Z,78.21
2023-02-19T09:44:45.558Z,78.88
2023-02-19T09:47:24.092Z,79.32
2023-02-19T09:49:54.497Z,79.67
2023-02-19T09:52:42.864Z,80.36
2023-02-19T09:55:16.976Z,80.41
2023-02-19T09:57:45.983Z,80.25
2023-02-19T10:00:12.889Z,80.90
2023-02-19T10:02:39.738Z,80.62
2023-02-19T10:05:16.970Z,80.92
2023-02-19T10:07:49.253Z,80.58
2023-02-19T10:10:15.801Z,81.10
2023-02-19T10:12:51.281Z,81.17
2023-02-19T10:15:32.260Z,80.39
2023-02-19T10:17:59.190Z,80.39
2023-02-19T10:20:28.009Z,80.71
2023-02-19T10:23:07.377Z,80.29
2023-02-19T10:25:35.238Z,79.69
2023-02-19T10:28:03.173Z,80.04
2023-02-19T10:30:35.795Z,79.32
2023-02-19T10:33:14.231Z,79.58
2023-02-19T10:35:56.170Z,80.08
2023-02-19T10:38:40.816Z,80.01
2023-02-19T10:41:18.807Z,79.70
2023-02-19T10:44:14.559Z,79.67
2023-02-19T10:46:44.164Z,79.30
2023-02-19T10:49:24.770Z,78.49
2023-02-19T10:51:53.606Z,78.54
2023-02-19T10:54:26.623Z,78.54
2023-02-19T10:56:54.189Z,78.69
2023-02-19T10:59:29.007Z,78.00
2023-02-19T11:01:57.454Z,77.64
2023-02-19T11:04:26.046Z,77.77
2023-02-19T11:06:53.148Z,77.27
2023-02-19T11:09:37.571Z,76.57
2023-02-19T11:12:05.831Z,76.75
2023-02-19T11:14:34.206Z,76.65
2023-02-19T11:17:05.618Z,76.94
2023-02-19T11:19:40.362Z,76.03
2023-02-19T11:22:39.158Z,73.76
2023-02-19T11:25:14.744Z,74.56
2023-02-19T11:28:08.239Z,74.66
2023-02-19T11:30:36.862Z,73.79
2023-02-19T11:33:27.376Z,73.97
2023-02-19T11:36:00.715Z,74.17
2023-02-19T11:38:27.300Z,74.95
2023-02-19T11:41:11.379Z,75.35
2023-02-19T11:43:50.224Z,75.35
2023-02-19T11:46:28.985Z,74.51
2023-02-19T11:49:17.811Z,73.39
2023-02-19T11:52:12.637Z,73.89
2023-02-19T11:55:09.008Z,72.78
2023-02-19T11:57:45.782Z,72.92
2023-02-19T12:00:28.737Z,72.85
2023-02-19T12:03:25.343Z,73.42
2023-02-19T12:06:19.764Z,72.77
2023-02-19T12:09:14.460Z,72.34
2023-02-19T12:11:53.663Z,70.44
2023-02-19T12:14:51.868Z,69.52
2023-02-19T12:17:39.070Z,69.96
2023-02-19T12:20:14.771Z,67.99
2023-02-19T12:22:55.053Z,68.40
2023-02-19T12:25:27.558Z,67.67
2023-02-19T12:28:15.176Z,66.64
2023-02-19T12:31:08.320Z,65.70
2023-02-19T12:33:44.095Z,63.67
2023-02-19T12:36:23.104Z,62.79
2023-02-19T12:39:13.562Z,61.46
2023-02-19T12:41:51.953Z,61.12
2023-02-19T12:44:39.003Z,60.61
2023-02-19T12:47:07.317Z,60.54
2023-02-19T12:49:39.586Z,60.72
2023-02-19T12:52:21.357Z,60.52
2023-02-19T12:54:55.686Z,59.44
2023-02-19T12:57:30.271Z,58.60
2023-02-19T13:00:07.581Z,58.84
2023-02-19T13:02:44.125Z,59.83
2023-02-19T13:05:32.813Z,59.94
2023-02-19T13:08:02.876Z,60.12
2023-02-19T13:10:35.706Z,59.46
2023-02-19T13:13:08.004Z,60.14
2023-02-19T13:15:39.162Z,60.00
2023-02-19T13:18:15.239Z,60.23
2023-02-19T13:20:44.472Z,60.04
2023-02-19T13:23:40.475Z,61.11
2023-02-19T13:26:31.607Z,61.63
2023-02-19T13:29:32.202Z,62.05
2023-02-19T13:32:43.832Z,62.85
2023-02-19T13:35:51.826Z,62.64
2023-02-19T13:38:18.988Z,63.71
2023-02-19T13:40:57.129Z,63.73
2023-02-19T13:43:28.107Z,61.04
2023-02-19T13:46:00.701Z,60.49
2023-02-19T13:48:31.734Z,60.60
2023-02-19T13:51:13.636Z,61.06
2023-02-19T13:53:45.905Z,61.03
2023-02-19T13:56:44.727Z,60.85
2023-02-19T13:59:11.285Z,61.63
2023-02-19T14:01:50.306Z,65.57
2023-02-19T14:04:24.700Z,66.30
2023-02-19T14:07:03.369Z,68.42
2023-02-19T14:09:43.879Z,67.28
2023-02-19T14:12:10.490Z,68.31
2023-02-19T14:14:45.188Z,68.27
2023-02-19T14:17:31.051Z,67.46
2023-02-19T14:20:17.128Z,66.50
2023-02-19T14:22:52.857Z,65.78
2023-02-19T14:25:32.327Z,64.86
2023-02-19T14:28:01.725Z,65.98
2023-02-19T14:30:29.559Z,65.89
2023-02-19T14:33:09.683Z,65.53
2023-02-19T14:35:42.775Z,66.11
2023-02-19T14:38:21.446Z,66.32
2023-02-19T14:40:49.096Z,66.01
2023-02-19T14:43:18.872Z,66.01
2023-02-19T14:45:57.637Z,66.67
2023-02-19T14:48:39.776Z,66.26
2023-02-19T14:51:16.982Z,66.22
2023-02-19T14:53:45.318Z,66.68
2023-02-19T14:56:25.744Z,66.58
2023-02-19T14:59:07.730Z,66.77
2023-02-19T15:01:34.422Z,66.13
2023-02-19T15:04:01.116Z,65.43
2023-02-19T15:06:28.827Z,65.12
2023-02-19T15:09:00.169Z,65.83
2023-02-19T15:11:31.245Z,65.84
2023-02-19T15:14:01.527Z,66.12
2023-02-19T15:16:30.628Z,66.47
2023-02-19T15:18:58.991Z,66.74
2023-02-19T15:21:28.084Z,66.99
2023-02-19T15:24:03.019Z,66.54
2023-02-19T15:26:40.556Z,66.43
2023-02-19T15:29:12.658Z,67.25
2023-02-19T15:32:00.099Z,66.82
2023-02-19T15:34:29.165Z,67.72
2023-02-19T15:37:00.106Z,67.80
2023-02-19T15:39:33.397Z,68.09
2023-02-19T15:42:02.227Z,68.25
2023-02-19T15:44:28.799Z,68.38
2023-02-19T15:46:56.968Z,68.53
2023-02-19T15:49:33.419Z,68.54
2023-02-19T15:52:05.961Z,68.34
2023-02-19T15:54:36.608Z,68.91
2023-02-19T15:57:14.359Z,68.53
2023-02-19T15:59:45.058Z,68.60
2023-02-19T16:02:16.049Z,68.66
2023-02-19T16:04:44.459Z,68.67
2023-02-19T16:07:31.949Z,68.77
2023-02-19T16:10:17.114Z,68.46
2023-02-19T16:12:43.878Z,68.21
2023-02-19T16:15:20.366Z,68.19
2023-02-19T16:17:47.231Z,68.30
2023-02-19T16:20:21.607Z,68.13
2023-02-19T16:22:48.457Z,68.39
2023-02-19T16:25:29.416Z,68.19
2023-02-19T16:27:56.558Z,67.81
2023-02-19T16:30:33.974Z,67.95
2023-02-19T16:33:38.085Z,67.80
2023-02-19T16:36:23.241Z,67.41
2023-02-19T16:39:08.200Z,67.83
2023-02-19T16:41:47.645Z,67.81
2023-02-19T16:44:30.918Z,67.72
2023-02-19T16:47:03.149Z,67.97
2023-02-19T16:49:29.765Z,67.84
2023-02-19T16:51:58.661Z,67.59
2023-02-19T16:54:25.353Z,67.41
2023-02-19T16:56:51.983Z,67.42
2023-02-19T16:59:18.586Z,68.31
2023-02-19T17:01:45.233Z,67.99
2023-02-19T17:04:13.539Z,67.96
2023-02-19T17:06:40.515Z,68.03
2023-02-19T17:09:08.699Z,67.50
2023-02-19T17:11:36.365Z,67.72
2023-02-19T17:14:03.531Z,67.72
2023-02-19T17:16:34.382Z,67.63
2023-02-19T17:19:01.024Z,67.84
2023-02-19T17:21:30.285Z,67.88
2023-02-19T17:23:57.146Z,67.43
2023-02-19T17:26:26.917Z,66.97
2023-02-19T17:28:56.101Z,66.32
2023-02-19T17:31:22.925Z,66.01
2023-02-19T17:33:50.266Z,65.94
2023-02-19T17:36:20.346Z,65.76
2023-02-19T17:38:47.237Z,66.22
2023-02-19T17:41:13.908Z,66.46
2023-02-19T17:43:40.833Z,66.49
2023-02-19T17:46:07.486Z,66.20
2023-02-19T17:48:34.107Z,66.28
2023-02-19T17:51:00.692Z,66.26
2023-02-19T17:53:27.299Z,66.31
2023-02-19T17:55:53.921Z,67.09
2023-02-19T17:58:20.578Z,67.21
2023-02-19T18:00:47.419Z,67.48
2023-02-19T18:03:14.254Z,67.06
2023-02-19T18:05:40.848Z,67.59
2023-02-19T18:08:07.454Z,67.51
2023-02-19T18:10:34.122Z,68.03
2023-02-19T18:13:00.724Z,67.81
2023-02-19T18:15:27.601Z,67.42
2023-02-19T18:17:55.850Z,67.09
2023-02-19T18:20:28.328Z,67.32
2023-02-19T18:22:56.614Z,67.62
2023-02-19T18:25:23.698Z,66.99
2023-02-19T18:27:50.922Z,67.44
2023-02-19T18:30:19.603Z,67.13
2023-02-19T18:32:48.646Z,67.08
2023-02-19T18:35:19.717Z,66.72
2023-02-19T18:37:51.240Z,66.84
2023-02-19T18:40:18.820Z,66.48
2023-02-19T18:42:45.414Z,66.45
2023-02-19T18:45:12.193Z,66.71
2023-02-19T18:47:38.790Z,66.29
2023-02-19T18:50:08.351Z,65.95
2023-02-19T18:52:34.930Z,65.97
2023-02-19T18:55:01.531Z,66.10
2023-02-19T18:57:28.121Z,65.91
2023-02-19T18:59:54.745Z,65.74
2023-02-19T19:02:21.731Z,65.46
2023-02-19T19:04:51.215Z,65.27
2023-02-19T19:07:18.944Z,64.94
2023-02-19T19:09:45.644Z,65.16
2023-02-19T19:12:12.718Z,65.15
2023-02-19T19:14:39.467Z,65.40
2023-02-19T19:17:06.119Z,64.85
2023-02-19T19:19:32.766Z,64.91
2023-02-19T19:21:59.360Z,65.06
2023-02-19T19:24:26.055Z,64.74
2023-02-19T19:26:53.813Z,64.44
2023-02-19T19:29:22.217Z,64.24
2023-02-19T19:31:49.654Z,64.88
2023-02-19T19:34:17.124Z,64.45
2023-02-19T19:36:44.363Z,64.97
2023-02-19T19:39:11.491Z,64.50
2023-02-19T19:41:38.117Z,63.80
2023-02-19T19:44:06.117Z,63.97
2023-02-19T19:46:33.304Z,63.84
2023-02-19T19:49:00.255Z,63.99
2023-02-19T19:51:34.404Z,63.46
2023-02-19T19:54:03.212Z,63.86
2023-02-19T19:56:30.432Z,63.42
2023-02-19T19:58:57.106Z,63.69
2023-02-19T20:01:24.359Z,63.16
2023-02-19T20:03:51.273Z,63.58
2023-02-19T20:06:26.578Z,64.00
2023-02-19T20:08:53.237Z,63.99
2023-02-19T20:11:19.862Z,63.72
2023-02-19T20:13:46.642Z,63.90
2023-02-19T20:16:14.625Z,63.80
2023-02-19T20:18:41.675Z,64.11
2023-02-19T20:21:09.960Z,64.47
2023-02-19T20:23:39.464Z,64.38
2023-02-19T20:26:06.623Z,64.92
2023-02-19T20:28:33.401Z,64.38
2023-02-19T20:31:00.277Z,64.46
2023-02-19T20:33:26.925Z,64.33
2023-02-19T20:35:53.634Z,64.17
2023-02-19T20:38:20.264Z,64.93
2023-02-19T20:40:46.994Z,64.26
2023-02-19T20:43:13.620Z,64.42
2023-02-19T20:45:41.098Z,64.65
2023-02-19T20:48:07.751Z,64.89
2023-02-19T20:50:34.437Z,65.03
2023-02-19T20:53:01.263Z,65.08
2023-02-19T20:55:28.758Z,64.69
2023-02-19T20:57:55.370Z,64.71
2023-02-19T21:00:22.235Z,64.02
2023-02-19T21:02:48.909Z,64.12
2023-02-19T21:05:17.643Z,63.99
2023-02-19T21:07:44.303Z,63.57
2023-02-19T21:10:11.104Z,63.65
2023-02-19T21:12:37.753Z,63.84
2023-02-19T21:15:05.531Z,64.01
2023-02-19T21:17:32.321Z,64.31
2023-02-19T21:19:58.911Z,64.24
2023-02-19T21:22:25.563Z,63.36
2023-02-19T21:24:53.164Z,62.85
2023-02-19T21:27:20.593Z,63.16
2023-02-19T21:29:47.557Z,63.02
2023-02-19T21:32:14.588Z,62.67
2023-02-19T21:34:42.262Z,62.76
2023-02-19T21:37:08.876Z,62.49
2023-02-19T21:39:35.563Z,62.51
2023-02-19T21:42:02.584Z,62.65
2023-02-19T21:44:29.268Z,62.32
2023-02-19T21:46:56.126Z,62.33
2023-02-19T21:49:22.770Z,62.44
2023-02-19T21:51:50.310Z,62.38
2023-02-19T21:54:24.721Z,61.82
2023-02-19T21:56:52.873Z,61.58
2023-02-19T21:59:21.022Z,62.12
2023-02-19T22:01:48.705Z,61.62
2023-02-19T22:04:18.544Z,62.18
2023-02-19T22:06:45.292Z,62.04
2023-02-19T22:09:13.297Z,61.90
2023-02-19T22:11:40.197Z,61.31
2023-02-19T22:14:06.889Z,61.02
2023-02-19T22:16:33.504Z,61.19
2023-02-19T22:19:00.431Z,60.97
2023-02-19T22:21:32.456Z,61.55
2023-02-19T22:24:00.402Z,61.09
2023-02-19T22:26:33.629Z,61.50
2023-02-19T22:29:01.481Z,61.57
2023-02-19T22:31:28.633Z,60.93
2023-02-19T22:33:56.403Z,60.70
2023-02-19T22:36:25.890Z,60.44
2023-02-19T22:38:52.986Z,60.27
2023-02-19T22:41:20.982Z,60.55
2023-02-19T22:43:48.068Z,60.61
2023-02-19T22:46:20.395Z,60.65
2023-02-19T22:48:47.135Z,60.45
2023-02-19T22:51:15.742Z,60.27
2023-02-19T22:53:46.222Z,60.49
2023-02-19T22:56:14.716Z,60.75
2023-02-19T22:58:42.078Z,60.90
2023-02-19T23:01:09.779Z,60.69
2023-02-19T23:03:49.085Z,60.95
2023-02-19T23:06:17.733Z,60.86
2023-02-19T23:08:44.468Z,60.60
2023-02-19T23:11:12.478Z,60.94
2023-02-19T23:13:42.278Z,61.02
2023-02-19T23:16:09.206Z,61.07
2023-02-19T23:18:36.068Z,61.73
2023-02-19T23:21:02.692Z,61.29
2023-02-19T23:23:29.282Z,61.22
2023-02-19T23:25:55.942Z,61.40
2023-02-19T23:28:22.537Z,61.59
2023-02-19T23:30:49.331Z,61.93
2023-02-19T23:33:16.092Z,62.61
2023-02-19T23:35:42.689Z,62.43
2023-02-19T23:38:09.836Z,62.41
2023-02-19T23:40:36.545Z,62.04
2023-02-19T23:43:03.381Z,62.32
2023-02-19T23:45:30.134Z,62.91
2023-02-19T23:47:56.804Z,62.92
2023-02-19T23:50:23.478Z,62.84
2023-02-19T23:52:50.161Z,62.92
2023-02-19T23:55:16.738Z,63.01
2023-02-19T23:57:43.351Z,63.26
